Terminal Aerodrome Forecast
Issued by NWS Twin Cities, MN

Home | Current Version | Previous Version | Graphics & Text | Print | Product List | Glossary On
Versions: 1 2 3 4 5 6 7 8 9 10 11 12 13 14 15 16 17 18 19 20
000
FTUS43 KMPX 241646 AAD
TAFEAU
TAF AMD
KEAU 241646Z 2417/2512 31015G22KT 1SM -SN BR OVC015
     FM241900 30015G22KT 4SM -SN OVC015
     FM242200 31016G27KT 6SM -SHSN OVC012
     FM250300 29009KT P6SM OVC015=

USA.gov is the U.S. government's official web portal to all federal, state and local government web resources and services.